createdAt,value
2019-05-22T00:01:41.607Z,100447.20
2019-05-22T00:04:27.986Z,100447.27
2019-05-22T00:07:06.324Z,100448.27
2019-05-22T00:09:42.534Z,100443.28
2019-05-22T00:12:19.327Z,100443.55
2019-05-22T00:14:54.556Z,100445.90
2019-05-22T00:17:34.351Z,100451.93
2019-05-22T00:20:10.728Z,100452.58
2019-05-22T00:22:47.636Z,100452.41
2019-05-22T00:25:25.032Z,100456.97
2019-05-22T00:28:00.619Z,100452.87
2019-05-22T00:30:39.460Z,100458.07
2019-05-22T00:33:14.556Z,100460.87
2019-05-22T00:35:50.141Z,100461.89
2019-05-22T00:38:27.308Z,100459.92
2019-05-22T00:41:08.063Z,100475.45
2019-05-22T00:43:44.784Z,100467.65
2019-05-22T00:46:20.806Z,100467.36
2019-05-22T00:48:57.849Z,100474.41
2019-05-22T00:51:49.633Z,100474.16
2019-05-22T00:54:45.405Z,100472.76
2019-05-22T00:57:27.093Z,100474.98
2019-05-22T01:00:19.933Z,100481.01
2019-05-22T01:02:56.420Z,100477.97
2019-05-22T01:05:31.371Z,100475.45
2019-05-22T01:08:08.717Z,100479.08
2019-05-22T01:10:49.965Z,100476.38
2019-05-22T01:13:26.316Z,100483.27
2019-05-22T01:16:02.073Z,100486.02
2019-05-22T01:18:38.645Z,100483.52
2019-05-22T01:21:22.033Z,100481.23
2019-05-22T01:24:00.645Z,100481.13
2019-05-22T01:26:36.342Z,100484.94
2019-05-22T01:29:12.048Z,100478.98
2019-05-22T01:31:54.046Z,100487.26
2019-05-22T01:34:35.521Z,100485.67
2019-05-22T01:37:14.868Z,100483.42
2019-05-22T01:40:02.379Z,100489.58
2019-05-22T01:42:43.247Z,100497.58
2019-05-22T01:45:18.776Z,100490.59
2019-05-22T01:48:02.967Z,100494.59
2019-05-22T01:50:55.785Z,100498.45
2019-05-22T01:53:38.786Z,100495.80
2019-05-22T01:56:16.517Z,100499.95
2019-05-22T01:58:52.830Z,100499.38
2019-05-22T02:01:27.537Z,100497.63
2019-05-22T02:04:02.437Z,100505.05
2019-05-22T02:06:39.608Z,100505.24
2019-05-22T02:09:41.271Z,100512.32
2019-05-22T02:12:31.914Z,100512.61
2019-05-22T02:15:08.012Z,100517.43
2019-05-22T02:17:42.956Z,100516.95
2019-05-22T02:20:20.151Z,100520.17
2019-05-22T02:22:54.755Z,100524.95
2019-05-22T02:25:29.264Z,100519.45
2019-05-22T02:28:04.213Z,100519.92
2019-05-22T02:30:40.739Z,100528.73
2019-05-22T02:33:18.679Z,100532.64
2019-05-22T02:35:54.227Z,100539.09
2019-05-22T02:38:29.799Z,100535.92
2019-05-22T02:41:04.829Z,100542.27
2019-05-22T02:43:39.632Z,100546.94
2019-05-22T02:46:14.602Z,100548.78
2019-05-22T02:48:49.331Z,100548.96
2019-05-22T02:51:23.074Z,100543.95
2019-05-22T02:54:00.687Z,100548.87
2019-05-22T02:56:36.345Z,100547.64
2019-05-22T02:59:13.957Z,100548.98
2019-05-22T03:01:48.496Z,100551.67
2019-05-22T03:04:23.529Z,100557.05
2019-05-22T03:06:57.324Z,100561.88
2019-05-22T03:09:34.114Z,100564.03
2019-05-22T03:12:12.198Z,100556.44
2019-05-22T03:14:47.750Z,100556.80
2019-05-22T03:17:33.752Z,100561.48
2019-05-22T03:20:13.893Z,100568.48
2019-05-22T03:23:03.485Z,100565.00
2019-05-22T03:25:38.677Z,100567.27
2019-05-22T03:28:14.379Z,100569.05
2019-05-22T03:30:50.328Z,100578.00
2019-05-22T03:33:26.523Z,100581.55
2019-05-22T03:36:18.325Z,100576.84
2019-05-22T03:38:55.713Z,100568.39
2019-05-22T03:41:30.258Z,100579.63
2019-05-22T03:44:07.411Z,100574.81
2019-05-22T03:46:48.349Z,100567.61
2019-05-22T03:49:30.581Z,100586.80
2019-05-22T03:51:59.765Z,100577.50
2019-05-22T03:54:36.640Z,100582.81
2019-05-22T03:57:12.522Z,100581.20
2019-05-22T03:59:46.503Z,100588.02
2019-05-22T04:02:23.075Z,100590.62
2019-05-22T04:04:58.639Z,100592.80
2019-05-22T04:07:33.634Z,100601.01
2019-05-22T04:10:09.793Z,100601.90
2019-05-22T04:12:44.646Z,100600.30
2019-05-22T04:15:20.920Z,100596.79
2019-05-22T04:17:59.426Z,100603.61
2019-05-22T04:20:34.019Z,100601.01
2019-05-22T04:23:10.226Z,100604.41
2019-05-22T04:25:44.696Z,100604.50
2019-05-22T04:28:18.875Z,100609.40
2019-05-22T04:30:55.115Z,100608.98
2019-05-22T04:33:31.257Z,100607.22
2019-05-22T04:36:10.097Z,100616.67
2019-05-22T04:38:44.225Z,100617.14
2019-05-22T04:41:18.873Z,100621.75
2019-05-22T04:43:52.702Z,100626.89
2019-05-22T04:46:28.522Z,100629.40
2019-05-22T04:49:03.402Z,100629.02
2019-05-22T04:51:39.204Z,100625.59
2019-05-22T04:54:14.138Z,100628.61
2019-05-22T04:56:52.100Z,100630.65
2019-05-22T04:59:28.437Z,100638.47
2019-05-22T05:02:05.482Z,100630.47
2019-05-22T05:04:40.100Z,100637.50
2019-05-22T05:07:15.082Z,100632.59
2019-05-22T05:09:49.294Z,100636.64
2019-05-22T05:12:23.500Z,100645.95
2019-05-22T05:14:59.545Z,100651.45
2019-05-22T05:17:33.452Z,100654.17
2019-05-22T05:20:21.687Z,100660.41
2019-05-22T05:22:45.811Z,100658.69
2019-05-22T05:25:22.700Z,100661.50
2019-05-22T05:27:59.304Z,100664.36
2019-05-22T05:30:34.414Z,100661.77
2019-05-22T05:33:08.681Z,100661.72
2019-05-22T05:35:42.672Z,100665.62
2019-05-22T05:38:18.456Z,100666.48
2019-05-22T05:40:53.616Z,100673.91
2019-05-22T05:43:29.336Z,100673.16
2019-05-22T05:46:03.789Z,100672.48
2019-05-22T05:48:40.312Z,100671.25
2019-05-22T05:51:27.946Z,100674.53
2019-05-22T05:54:11.601Z,100674.37
2019-05-22T05:56:51.647Z,100678.64
2019-05-22T05:59:27.875Z,100682.48
2019-05-22T06:02:02.208Z,100687.89
2019-05-22T06:04:39.940Z,100687.39
2019-05-22T06:07:39.678Z,100691.64
2019-05-22T06:11:14.962Z,100698.00
2019-05-22T06:13:49.044Z,100696.13
2019-05-22T06:17:26.509Z,100694.33
2019-05-22T06:20:04.365Z,100703.59
2019-05-22T06:22:39.233Z,100709.78
2019-05-22T06:25:14.417Z,100707.84
2019-05-22T06:27:53.812Z,100707.69
2019-05-22T06:30:46.777Z,100714.13
2019-05-22T06:33:46.759Z,100716.83
2019-05-22T06:36:22.814Z,100714.02
2019-05-22T06:39:07.884Z,100720.34
2019-05-22T06:41:43.962Z,100723.15
2019-05-22T06:44:37.819Z,100721.02
2019-05-22T06:47:23.796Z,100724.20
2019-05-22T06:49:58.731Z,100732.16
2019-05-22T06:52:32.900Z,100736.38
2019-05-22T06:55:07.643Z,100728.87
2019-05-22T06:57:42.606Z,100733.32
2019-05-22T07:00:25.251Z,100736.54
2019-05-22T07:02:59.579Z,100735.39
2019-05-22T07:05:34.053Z,100734.95
2019-05-22T07:08:10.701Z,100733.62
2019-05-22T07:10:45.019Z,100740.80
2019-05-22T07:13:20.079Z,100734.50
2019-05-22T07:15:55.700Z,100743.16
2019-05-22T07:18:32.356Z,100743.62
2019-05-22T07:21:08.109Z,100753.84
2019-05-22T07:23:42.190Z,100748.38
2019-05-22T07:26:16.385Z,100756.08
2019-05-22T07:28:50.820Z,100755.03
2019-05-22T07:31:25.662Z,100760.03
2019-05-22T07:33:59.810Z,100759.32
2019-05-22T07:36:37.553Z,100760.84
2019-05-22T07:39:12.206Z,100763.00
2019-05-22T07:41:47.447Z,100767.62
2019-05-22T07:44:22.466Z,100765.23
2019-05-22T07:46:58.217Z,100768.32
2019-05-22T07:49:32.493Z,100770.74
2019-05-22T07:52:08.068Z,100766.22
2019-05-22T07:54:43.834Z,100776.13
2019-05-22T07:57:23.173Z,100783.06
2019-05-22T07:59:58.473Z,100784.03
2019-05-22T08:02:41.546Z,100783.65
2019-05-22T08:05:16.952Z,100791.34
2019-05-22T08:07:51.916Z,100789.46
2019-05-22T08:10:31.142Z,100795.89
2019-05-22T08:13:05.158Z,100793.27
2019-05-22T08:15:39.336Z,100799.06
2019-05-22T08:18:15.507Z,100804.41
2019-05-22T08:20:49.710Z,100802.69
2019-05-22T08:23:25.919Z,100806.00
2019-05-22T08:26:00.811Z,100805.00
2019-05-22T08:28:37.029Z,100804.19
2019-05-22T08:31:16.340Z,100814.52
2019-05-22T08:33:51.004Z,100817.42
2019-05-22T08:36:25.848Z,100823.50
2019-05-22T08:39:04.260Z,100819.43
2019-05-22T08:41:44.041Z,100818.31
2019-05-22T08:44:18.606Z,100825.27
2019-05-22T08:46:54.195Z,100835.27
2019-05-22T08:49:28.111Z,100835.78
2019-05-22T08:52:02.207Z,100836.01
2019-05-22T08:54:37.522Z,100838.20
2019-05-22T08:57:14.023Z,100843.98
2019-05-22T08:59:48.497Z,100844.37
2019-05-22T09:02:23.434Z,100853.36
2019-05-22T09:04:59.348Z,100855.50
2019-05-22T09:07:33.275Z,100853.04
2019-05-22T09:10:09.838Z,100852.02
2019-05-22T09:12:43.977Z,100856.92
2019-05-22T09:15:18.504Z,100854.94
2019-05-22T09:17:52.575Z,100855.62
2019-05-22T09:20:26.951Z,100857.75
2019-05-22T09:23:02.231Z,100861.66
2019-05-22T09:25:36.452Z,100869.64
2019-05-22T09:28:11.231Z,100869.81
2019-05-22T09:30:45.319Z,100870.63
2019-05-22T09:33:19.727Z,100876.22
2019-05-22T09:35:54.809Z,100870.75
2019-05-22T09:38:29.824Z,100870.75
2019-05-22T09:41:04.432Z,100881.91
2019-05-22T09:43:39.313Z,100884.72
2019-05-22T09:46:14.047Z,100883.03
2019-05-22T09:48:47.950Z,100882.46
2019-05-22T09:51:22.200Z,100886.71
2019-05-22T09:53:58.478Z,100888.80
2019-05-22T09:56:34.245Z,100890.53
2019-05-22T09:59:08.724Z,100899.47
2019-05-22T10:01:43.577Z,100895.65
2019-05-22T10:04:17.329Z,100903.58
2019-05-22T10:06:51.991Z,100906.88
2019-05-22T10:09:26.874Z,100907.58
2019-05-22T10:12:01.411Z,100911.72
2019-05-22T10:14:36.361Z,100914.52
2019-05-22T10:17:13.200Z,100914.42
2019-05-22T10:19:49.485Z,100914.09
2019-05-22T10:22:24.619Z,100918.45
2019-05-22T10:25:15.074Z,100913.66
2019-05-22T10:27:34.877Z,100916.39
2019-05-22T10:30:12.164Z,100924.87
2019-05-22T10:32:47.879Z,100923.26
2019-05-22T10:35:25.571Z,100936.62
2019-05-22T10:37:59.658Z,100939.80
2019-05-22T10:40:34.265Z,100936.48
2019-05-22T10:43:08.723Z,100938.55
2019-05-22T10:45:46.109Z,100938.67
2019-05-22T10:48:21.349Z,100939.85
2019-05-22T10:50:56.214Z,100948.06
2019-05-22T10:53:34.119Z,100946.13
2019-05-22T10:56:09.173Z,100951.22
2019-05-22T10:58:45.014Z,100945.05
2019-05-22T11:01:19.420Z,100955.23
2019-05-22T11:03:53.918Z,100947.81
2019-05-22T11:06:28.344Z,100951.84
2019-05-22T11:09:02.406Z,100957.38
2019-05-22T11:11:38.264Z,100955.75
2019-05-22T11:14:14.320Z,100951.27
2019-05-22T11:16:50.320Z,100949.05
2019-05-22T11:19:24.856Z,100948.04
2019-05-22T11:21:59.095Z,100954.39
2019-05-22T11:24:33.000Z,100958.13
2019-05-22T11:27:07.101Z,100957.06
2019-05-22T11:29:42.126Z,100960.00
2019-05-22T11:32:18.393Z,100964.62
2019-05-22T11:34:53.269Z,100958.16
2019-05-22T11:37:26.981Z,100962.41
2019-05-22T11:40:01.594Z,100958.38
2019-05-22T11:42:35.724Z,100959.41
2019-05-22T11:45:12.459Z,100958.07
2019-05-22T11:47:46.356Z,100955.37
2019-05-22T11:50:22.505Z,100955.41
2019-05-22T11:52:56.261Z,100947.22
2019-05-22T11:55:43.666Z,100954.27
2019-05-22T11:58:08.570Z,100957.18
2019-05-22T12:00:44.735Z,100952.80
2019-05-22T12:03:20.977Z,100955.31
2019-05-22T12:05:56.533Z,100959.51
2019-05-22T12:08:32.080Z,100962.78
2019-05-22T12:11:07.476Z,100962.87
2019-05-22T12:13:42.958Z,100954.74
2019-05-22T12:16:17.189Z,100960.16
2019-05-22T12:18:51.216Z,100959.73
2019-05-22T12:21:26.588Z,100963.45
2019-05-22T12:24:00.536Z,100958.30
2019-05-22T12:26:34.483Z,100962.76
2019-05-22T12:29:08.466Z,100969.55
2019-05-22T12:31:43.955Z,100965.55
2019-05-22T12:34:20.068Z,100962.47
2019-05-22T12:36:55.173Z,100968.41
2019-05-22T12:39:30.549Z,100961.11
2019-05-22T12:42:06.209Z,100968.70
2019-05-22T12:44:40.096Z,100967.81
2019-05-22T12:47:15.620Z,100970.56
2019-05-22T12:49:50.027Z,100975.34
2019-05-22T12:52:24.944Z,100973.27
2019-05-22T12:55:00.462Z,100972.22
2019-05-22T12:57:35.425Z,100968.97
2019-05-22T13:00:11.377Z,100970.86
2019-05-22T13:02:48.731Z,100976.09
2019-05-22T13:05:24.011Z,100974.31
2019-05-22T13:07:58.901Z,100971.70
2019-05-22T13:10:34.257Z,100972.63
2019-05-22T13:13:09.939Z,100972.39
2019-05-22T13:15:44.402Z,100973.77
2019-05-22T13:18:24.687Z,100979.98
2019-05-22T13:20:58.971Z,100978.78
2019-05-22T13:23:39.597Z,100973.94
2019-05-22T13:26:13.634Z,100979.53
2019-05-22T13:28:50.253Z,100977.08
2019-05-22T13:31:24.310Z,100985.70
2019-05-22T13:33:59.488Z,100993.48
2019-05-22T13:36:33.805Z,100991.38
2019-05-22T13:39:09.905Z,100987.53
2019-05-22T13:41:44.110Z,100982.69
2019-05-22T13:44:18.862Z,100978.50
2019-05-22T13:46:53.558Z,100979.27
2019-05-22T13:49:30.882Z,100982.30
2019-05-22T13:52:06.233Z,100987.21
2019-05-22T13:54:41.018Z,100995.55
2019-05-22T13:57:16.538Z,100990.33
2019-05-22T13:59:50.904Z,100995.14
2019-05-22T14:02:28.058Z,100994.72
2019-05-22T14:05:02.514Z,100997.28
2019-05-22T14:07:36.716Z,100996.42
2019-05-22T14:10:11.677Z,100993.38
2019-05-22T14:12:48.077Z,101001.38
2019-05-22T14:15:24.289Z,100994.41
2019-05-22T14:17:59.250Z,101000.16
2019-05-22T14:20:33.103Z,100999.19
2019-05-22T14:23:07.377Z,100999.42
2019-05-22T14:25:44.137Z,101006.30
2019-05-22T14:28:19.788Z,101005.86
2019-05-22T14:30:54.359Z,100999.56
2019-05-22T14:33:29.856Z,101002.70
2019-05-22T14:36:06.139Z,101010.39
2019-05-22T14:38:41.899Z,101011.65
2019-05-22T14:41:16.776Z,101009.31
2019-05-22T14:43:50.508Z,101008.60
2019-05-22T14:46:24.476Z,101008.52
2019-05-22T14:48:58.638Z,101011.09
2019-05-22T14:51:33.280Z,101002.00
2019-05-22T14:54:08.294Z,101001.39
2019-05-22T14:56:44.046Z,100998.03
2019-05-22T14:59:19.872Z,100999.56
2019-05-22T15:01:55.697Z,101006.77
2019-05-22T15:04:30.519Z,101001.47
2019-05-22T15:07:04.923Z,101002.97
2019-05-22T15:09:38.928Z,100999.69
2019-05-22T15:12:13.127Z,101003.34
2019-05-22T15:14:47.081Z,101007.06
2019-05-22T15:17:32.198Z,100995.48
2019-05-22T15:19:57.593Z,101001.30
2019-05-22T15:22:34.076Z,100998.50
2019-05-22T15:25:10.046Z,100997.80
2019-05-22T15:27:46.245Z,100992.89
2019-05-22T15:30:21.808Z,100995.93
2019-05-22T15:32:57.867Z,100994.09
2019-05-22T15:35:33.758Z,100980.61
2019-05-22T15:38:10.936Z,100986.26
2019-05-22T15:40:46.657Z,100984.95
2019-05-22T15:43:21.272Z,100982.50
2019-05-22T15:45:56.424Z,100977.23
2019-05-22T15:48:33.670Z,100972.87
2019-05-22T15:51:10.252Z,100975.76
2019-05-22T15:53:47.133Z,100974.00
2019-05-22T15:56:22.486Z,100977.20
2019-05-22T15:58:58.316Z,100980.31
2019-05-22T16:01:37.053Z,100967.52
2019-05-22T16:04:15.099Z,100976.70
2019-05-22T16:06:51.685Z,100976.37
2019-05-22T16:09:29.759Z,100972.80
2019-05-22T16:12:06.597Z,100981.38
2019-05-22T16:14:42.004Z,100978.75
2019-05-22T16:17:18.948Z,100975.77
2019-05-22T16:19:54.742Z,100977.81
2019-05-22T16:22:31.086Z,100981.38
2019-05-22T16:25:06.494Z,100978.38
2019-05-22T16:27:43.349Z,100976.58
2019-05-22T16:30:18.717Z,100976.70
2019-05-22T16:32:56.347Z,100980.31
2019-05-22T16:35:31.992Z,100980.63
2019-05-22T16:38:08.408Z,100975.22
2019-05-22T16:40:45.719Z,100981.80
2019-05-22T16:43:22.742Z,100980.14
2019-05-22T16:45:57.793Z,100984.34
2019-05-22T16:48:33.993Z,100979.43
2019-05-22T16:51:12.078Z,100986.32
2019-05-22T16:53:53.838Z,100981.02
2019-05-22T16:56:29.227Z,100981.67
2019-05-22T16:59:05.229Z,100987.75
2019-05-22T17:01:56.830Z,100987.55
2019-05-22T17:04:16.307Z,100992.92
2019-05-22T17:06:50.957Z,100991.00
2019-05-22T17:09:28.499Z,100993.45
2019-05-22T17:12:06.138Z,100990.98
2019-05-22T17:14:40.841Z,100993.83
2019-05-22T17:17:18.879Z,100994.66
2019-05-22T17:19:53.635Z,100994.58
2019-05-22T17:22:29.422Z,100997.59
2019-05-22T17:25:05.317Z,100993.72
2019-05-22T17:27:41.361Z,100995.31
2019-05-22T17:30:23.327Z,100992.59
2019-05-22T17:32:59.611Z,100994.05
2019-05-22T17:35:35.251Z,100989.66
2019-05-22T17:38:10.310Z,100991.89
2019-05-22T17:40:45.894Z,100995.36
2019-05-22T17:43:24.035Z,100992.23
2019-05-22T17:45:59.080Z,100989.09
2019-05-22T17:48:35.289Z,100996.69
2019-05-22T17:51:10.695Z,100988.83
2019-05-22T17:53:46.312Z,100993.59
2019-05-22T17:56:20.718Z,100989.29
2019-05-22T17:58:54.986Z,100988.65
2019-05-22T18:01:29.852Z,100996.83
2019-05-22T18:04:04.729Z,100996.70
2019-05-22T18:06:41.497Z,100996.13
2019-05-22T18:09:16.459Z,100996.50
2019-05-22T18:11:53.539Z,100998.30
2019-05-22T18:14:28.491Z,100994.53
2019-05-22T18:17:04.418Z,101000.98
2019-05-22T18:19:38.498Z,100992.91
2019-05-22T18:22:15.034Z,100996.31
2019-05-22T18:24:49.818Z,101000.92
2019-05-22T18:27:25.434Z,100997.95
2019-05-22T18:29:59.864Z,100997.05
2019-05-22T18:32:38.312Z,100999.86
2019-05-22T18:35:24.760Z,101002.67
2019-05-22T18:38:04.678Z,100998.20
2019-05-22T18:40:38.947Z,101006.43
2019-05-22T18:43:18.937Z,101000.11
2019-05-22T18:45:53.902Z,100999.45
2019-05-22T18:48:33.098Z,101003.75
2019-05-22T18:51:09.176Z,101006.21
2019-05-22T18:53:43.583Z,101011.56
2019-05-22T18:56:20.570Z,101017.04
2019-05-22T18:58:57.530Z,101017.00
2019-05-22T19:01:37.335Z,101014.28
2019-05-22T19:04:15.996Z,101024.78
2019-05-22T19:06:55.802Z,101021.97
2019-05-22T19:09:32.067Z,101020.45
2019-05-22T19:12:09.334Z,101020.53
2019-05-22T19:14:47.125Z,101017.38
2019-05-22T19:17:22.991Z,101021.83
2019-05-22T19:20:41.917Z,101022.80
2019-05-22T19:23:16.864Z,101024.52
2019-05-22T19:25:53.864Z,101024.72
2019-05-22T19:28:42.271Z,101028.48
2019-05-22T19:31:04.113Z,101036.42
2019-05-22T19:33:40.901Z,101027.80
2019-05-22T19:36:16.732Z,101032.49
2019-05-22T19:38:52.680Z,101038.95
2019-05-22T19:41:29.167Z,101038.30
2019-05-22T19:44:03.589Z,101038.52
2019-05-22T19:46:39.837Z,101040.77
2019-05-22T19:49:14.953Z,101047.82
2019-05-22T19:51:51.901Z,101051.95
2019-05-22T19:54:26.121Z,101051.81
2019-05-22T19:56:59.955Z,101049.53
2019-05-22T19:59:35.825Z,101053.41
2019-05-22T20:02:12.526Z,101052.91
2019-05-22T20:04:47.299Z,101056.11
2019-05-22T20:07:22.667Z,101057.41
2019-05-22T20:09:58.984Z,101063.72
2019-05-22T20:12:34.493Z,101061.95
2019-05-22T20:15:10.471Z,101059.47
2019-05-22T20:17:44.957Z,101062.30
2019-05-22T20:20:21.000Z,101067.34
2019-05-22T20:22:55.458Z,101068.92
2019-05-22T20:25:31.181Z,101070.45
2019-05-22T20:28:08.098Z,101067.68
2019-05-22T20:30:44.872Z,101066.14
2019-05-22T20:33:20.560Z,101065.26
2019-05-22T20:35:56.776Z,101071.34
2019-05-22T20:38:32.820Z,101069.40
2019-05-22T20:41:08.917Z,101072.08
2019-05-22T20:43:50.151Z,101069.53
2019-05-22T20:46:25.155Z,101070.07
2019-05-22T20:49:02.474Z,101072.78
2019-05-22T20:51:38.615Z,101071.30
2019-05-22T20:54:15.370Z,101069.38
2019-05-22T20:56:53.403Z,101074.58
2019-05-22T20:59:32.489Z,101079.80
2019-05-22T21:02:08.899Z,101078.27
2019-05-22T21:04:44.080Z,101079.70
2019-05-22T21:07:23.381Z,101081.25
2019-05-22T21:09:58.128Z,101088.51
2019-05-22T21:12:35.882Z,101086.62
2019-05-22T21:15:10.608Z,101084.50
2019-05-22T21:17:45.796Z,101089.35
2019-05-22T21:20:23.386Z,101089.35
2019-05-22T21:22:57.901Z,101085.66
2019-05-22T21:25:32.245Z,101089.29
2019-05-22T21:28:06.579Z,101088.73
2019-05-22T21:30:41.714Z,101091.55
2019-05-22T21:33:16.112Z,101085.80
2019-05-22T21:35:51.036Z,101089.09
2019-05-22T21:38:27.352Z,101089.22
2019-05-22T21:41:01.357Z,101097.00
2019-05-22T21:43:35.381Z,101102.19
2019-05-22T21:46:12.538Z,101098.39
2019-05-22T21:48:48.788Z,101094.03
2019-05-22T21:51:24.286Z,101102.06
2019-05-22T21:53:59.417Z,101100.43
2019-05-22T21:56:34.390Z,101100.56
2019-05-22T21:59:09.187Z,101100.25
2019-05-22T22:01:59.002Z,101102.97
2019-05-22T22:04:37.105Z,101101.87
2019-05-22T22:07:14.188Z,101105.20
2019-05-22T22:09:50.356Z,101104.46
2019-05-22T22:12:25.809Z,101113.12
2019-05-22T22:15:00.198Z,101113.47
2019-05-22T22:17:38.228Z,101110.66
2019-05-22T22:20:13.046Z,101108.06
2019-05-22T22:22:49.205Z,101111.36
2019-05-22T22:25:25.070Z,101108.62
2019-05-22T22:27:58.949Z,101115.22
2019-05-22T22:30:42.408Z,101111.55
2019-05-22T22:33:19.755Z,101117.63
2019-05-22T22:35:56.360Z,101123.89
2019-05-22T22:38:31.007Z,101127.38
2019-05-22T22:41:07.599Z,101130.48
2019-05-22T22:43:43.324Z,101134.59
2019-05-22T22:46:30.635Z,101129.81
2019-05-22T22:49:06.188Z,101130.09
2019-05-22T22:51:41.154Z,101126.55
2019-05-22T22:54:16.878Z,101125.65
2019-05-22T22:56:50.778Z,101124.29
2019-05-22T22:59:25.439Z,101124.78
2019-05-22T23:02:01.995Z,101126.27
2019-05-22T23:04:38.738Z,101122.22
2019-05-22T23:07:15.529Z,101124.13
2019-05-22T23:09:50.274Z,101130.84
2019-05-22T23:12:26.402Z,101131.06
2019-05-22T23:15:02.202Z,101131.55
2019-05-22T23:17:39.096Z,101128.28
2019-05-22T23:20:10.097Z,101124.31
2019-05-22T23:22:41.856Z,101129.01
2019-05-22T23:25:19.672Z,101131.38
2019-05-22T23:27:56.090Z,101135.31
2019-05-22T23:30:31.748Z,101138.51
2019-05-22T23:33:06.727Z,101131.38
2019-05-22T23:35:41.431Z,101141.45
2019-05-22T23:38:17.929Z,101135.48
2019-05-22T23:40:52.530Z,101145.00
2019-05-22T23:43:28.163Z,101139.13
2019-05-22T23:46:04.216Z,101142.19
2019-05-22T23:48:41.013Z,101142.53
2019-05-22T23:51:16.799Z,101142.19
2019-05-22T23:53:50.759Z,101139.35
2019-05-22T23:56:26.693Z,101134.72
2019-05-22T23:59:04.257Z,101145.61
